Time;durP1;ratioP1;P1;durP2;ratioP2;P2;SDS_P1;SDS_P2;PMS_P1;PMS_P2;Temp;Humidity;BMP_temperature;BMP_pressure;BME280_temperature;BME280_humidity;BME280_pressure;Samples;Min_cycle;Max_cycle;Signal;HPM_P1;HPM_P2
2022/01/28 00:02:44;;;;;;;10.60;3.33;;;6.40;99.90;;;;;;5012555;28;20454;-67
2022/01/28 00:05:16;;;;;;;10.07;3.20;;;6.40;99.90;;;;;;5012485;28;20585;-68
2022/01/28 00:07:41;;;;;;;8.80;3.07;;;6.30;99.90;;;;;;5026461;28;20444;-67
2022/01/28 00:10:07;;;;;;;8.10;2.90;;;6.30;99.90;;;;;;5039939;28;20978;-67
2022/01/28 00:12:34;;;;;;;7.03;2.70;;;6.30;99.90;;;;;;5018926;28;20218;-68
2022/01/28 00:15:09;;;;;;;13.03;3.40;;;6.30;99.90;;;;;;5019709;28;20200;-68
2022/01/28 00:18:18;;;;;;;5.73;2.80;;;6.40;99.90;;;;;;5031962;28;21001;-67
2022/01/28 00:39:09;;;;;;;10.00;3.20;;;6.10;99.90;;;;;;5067348;28;20429;-67
2022/01/28 00:41:35;;;;;;;10.07;3.30;;;6.10;99.90;;;;;;5065644;28;20514;-69
2022/01/28 00:44:00;;;;;;;7.87;3.33;;;6.10;99.90;;;;;;5067799;28;20186;-67
2022/01/28 00:46:25;;;;;;;9.63;3.43;;;6.00;99.90;;;;;;5066563;28;20193;-67
2022/01/28 00:48:51;;;;;;;7.90;3.80;;;5.90;99.90;;;;;;5058647;28;20166;-68
2022/01/28 00:51:16;;;;;;;10.97;3.60;;;5.90;99.90;;;;;;5064971;28;20177;-68
2022/01/28 00:53:42;;;;;;;17.20;4.33;;;6.00;99.90;;;;;;5054188;28;20194;-67
2022/01/28 00:56:07;;;;;;;9.70;4.00;;;6.00;99.90;;;;;;5054383;28;20206;-68
2022/01/28 00:58:33;;;;;;;11.23;3.70;;;6.00;99.90;;;;;;5053697;28;20186;-68
2022/01/28 01:00:59;;;;;;;14.67;4.20;;;6.10;99.90;;;;;;5054751;28;20198;-68
2022/01/28 01:03:25;;;;;;;11.20;4.20;;;6.00;99.90;;;;;;5053281;28;20236;-68
2022/01/28 01:05:51;;;;;;;17.70;5.47;;;6.00;99.90;;;;;;5053218;28;20201;-67
2022/01/28 01:08:17;;;;;;;14.93;3.70;;;6.00;99.90;;;;;;5053123;28;20416;-68
2022/01/28 01:10:42;;;;;;;9.87;4.50;;;6.00;99.90;;;;;;5054139;28;20428;-67
2022/01/28 01:13:08;;;;;;;10.73;4.10;;;5.90;99.90;;;;;;5053960;28;20174;-68
2022/01/28 01:15:39;;;;;;;12.57;4.10;;;5.90;99.90;;;;;;5051799;28;20218;-67
2022/01/28 01:18:21;;;;;;;14.23;3.70;;;6.00;99.90;;;;;;5052158;28;20549;-66
2022/01/28 01:23:35;;;;;;;7.43;3.70;;;5.90;99.90;;;;;;5052901;28;20427;-67
2022/01/28 01:28:37;;;;;;;9.00;3.60;;;5.90;99.90;;;;;;5053584;28;20428;-68
2022/01/28 01:31:05;;;;;;;10.67;3.83;;;6.00;99.90;;;;;;5053067;28;20450;-68
2022/01/28 01:33:36;;;;;;;8.70;3.43;;;5.90;99.90;;;;;;5054898;28;20509;-68
2022/01/28 01:36:02;;;;;;;9.70;3.10;;;6.00;99.90;;;;;;5055869;28;20464;-68
2022/01/28 01:38:32;;;;;;;11.43;4.23;;;6.10;99.90;;;;;;5056930;28;20433;-67
2022/01/28 01:41:00;;;;;;;8.60;4.00;;;6.10;99.90;;;;;;5056844;28;20456;-68
2022/01/28 01:54:06;;;;;;;8.63;3.40;;;5.90;99.90;;;;;;5057405;28;20415;-68
2022/01/28 01:56:33;;;;;;;8.50;3.10;;;5.90;99.90;;;;;;5057055;28;20483;-68
2022/01/28 01:58:59;;;;;;;16.67;3.67;;;5.90;99.90;;;;;;5056855;28;20444;-67
2022/01/28 02:01:25;;;;;;;10.27;2.40;;;5.80;99.90;;;;;;5057504;28;20491;-68
2022/01/28 02:03:51;;;;;;;10.23;3.40;;;5.80;99.90;;;;;;5066545;28;20438;-68
2022/01/28 02:06:19;;;;;;;7.80;3.50;;;5.70;99.90;;;;;;5057878;28;20464;-68
2022/01/28 02:08:45;;;;;;;15.93;3.40;;;5.60;99.90;;;;;;5054736;28;20662;-68
2022/01/28 02:11:11;;;;;;;12.10;3.90;;;5.70;99.90;;;;;;5056717;28;20425;-68
2022/01/28 02:13:39;;;;;;;7.63;3.57;;;5.70;99.90;;;;;;5056056;28;20420;-68
2022/01/28 02:16:06;;;;;;;15.57;3.93;;;5.70;99.90;;;;;;5050534;28;20265;-66
2022/01/28 02:18:32;;;;;;;11.50;4.13;;;5.80;99.90;;;;;;5056175;28;20408;-68
2022/01/28 02:21:10;;;;;;;16.37;5.10;;;5.70;99.90;;;;;;5057876;28;20455;-68
2022/01/28 02:23:37;;;;;;;11.07;3.57;;;5.70;99.90;;;;;;5056598;28;20500;-68
2022/01/28 02:26:04;;;;;;;12.27;3.60;;;5.70;99.90;;;;;;5055511;28;20811;-68
2022/01/28 02:28:34;;;;;;;8.50;3.90;;;5.60;99.90;;;;;;5056129;28;20905;-67
2022/01/28 02:31:04;;;;;;;12.43;3.30;;;5.60;99.90;;;;;;5056413;28;20417;-67
2022/01/28 02:33:30;;;;;;;9.90;3.70;;;5.60;99.90;;;;;;5049939;28;20473;-68
2022/01/28 02:36:06;;;;;;;11.20;3.43;;;5.60;99.90;;;;;;5055447;28;20956;-68
2022/01/28 02:38:32;;;;;;;10.30;3.17;;;5.50;99.90;;;;;;5058856;28;20174;-67
2022/01/28 02:41:00;;;;;;;9.60;3.93;;;5.50;99.90;;;;;;5068048;28;20825;-68
2022/01/28 02:43:41;;;;;;;11.57;3.30;;;5.50;99.90;;;;;;5055307;28;20412;-68
2022/01/28 02:46:11;;;;;;;7.80;2.77;;;5.50;99.90;;;;;;5053916;28;20497;-68
2022/01/28 02:48:40;;;;;;;13.33;4.00;;;5.30;99.90;;;;;;5055989;28;20413;-68
2022/01/28 02:53:56;;;;;;;11.73;3.17;;;5.50;99.90;;;;;;5054764;28;20432;-67
2022/01/28 02:56:38;;;;;;;9.90;3.10;;;5.50;99.90;;;;;;5054051;28;20507;-67
2022/01/28 02:59:04;;;;;;;18.70;3.77;;;5.60;99.90;;;;;;5054799;28;20409;-68
2022/01/28 03:01:30;;;;;;;9.90;3.47;;;5.60;99.90;;;;;;5046845;28;20453;-68
2022/01/28 03:03:57;;;;;;;15.93;4.60;;;5.60;99.90;;;;;;5055488;28;20409;-68
2022/01/28 03:06:23;;;;;;;7.60;2.57;;;5.60;99.90;;;;;;5054095;28;20186;-68
2022/01/28 03:08:59;;;;;;;9.37;3.43;;;5.70;99.90;;;;;;5054700;28;20405;-67
2022/01/28 03:14:35;;;;;;;15.60;3.90;;;5.70;99.90;;;;;;5054503;28;20773;-67
2022/01/28 03:19:42;;;;;;;9.90;3.20;;;5.50;99.90;;;;;;5055350;28;20515;-68
2022/01/28 03:22:08;;;;;;;11.30;3.07;;;5.40;99.90;;;;;;5052003;28;20518;-68
2022/01/28 03:24:33;;;;;;;8.13;3.33;;;5.40;99.90;;;;;;5041511;28;20436;-67
2022/01/28 03:27:05;;;;;;;12.27;2.80;;;5.40;99.90;;;;;;5053745;28;20232;-67
2022/01/28 03:29:31;;;;;;;9.70;3.67;;;5.40;99.90;;;;;;5053858;28;20181;-68
2022/01/28 03:31:56;;;;;;;12.00;3.40;;;5.40;99.90;;;;;;5055434;28;20420;-68
2022/01/28 03:34:22;;;;;;;10.87;3.47;;;5.50;99.90;;;;;;5054273;28;20185;-68
2022/01/28 03:36:50;;;;;;;9.63;3.60;;;5.50;99.90;;;;;;5054018;28;20213;-67
2022/01/28 03:39:15;;;;;;;10.13;2.97;;;5.50;99.90;;;;;;5054018;28;20592;-68
2022/01/28 03:41:41;;;;;;;11.63;3.53;;;5.50;99.90;;;;;;5053517;28;20452;-67
2022/01/28 03:44:07;;;;;;;6.30;2.80;;;5.50;99.90;;;;;;5055354;28;20236;-67
2022/01/28 03:46:32;;;;;;;10.43;3.50;;;5.50;99.90;;;;;;5053642;28;20194;-68
2022/01/28 03:48:58;;;;;;;16.70;3.57;;;5.50;99.90;;;;;;5054490;28;20240;-68
2022/01/28 03:51:24;;;;;;;13.20;3.27;;;5.50;99.90;;;;;;5053900;28;20190;-67
2022/01/28 03:53:49;;;;;;;13.47;3.23;;;5.40;99.90;;;;;;5054942;28;20429;-67
2022/01/28 03:56:16;;;;;;;14.43;3.30;;;5.40;99.90;;;;;;5053413;28;20285;-68
2022/01/28 03:58:42;;;;;;;11.63;3.00;;;5.40;99.90;;;;;;5053667;28;20466;-67
2022/01/28 04:01:15;;;;;;;10.00;2.90;;;5.50;99.90;;;;;;5053477;28;20988;-67
2022/01/28 04:03:49;;;;;;;7.97;3.03;;;5.50;99.90;;;;;;5054586;28;20417;-68
2022/01/28 04:11:33;;;;;;;9.83;2.97;;;5.60;99.90;;;;;;5053534;28;20948;-67
2022/01/28 04:14:10;;;;;;;10.00;4.17;;;5.70;99.90;;;;;;5053410;28;20486;-66
2022/01/28 04:19:20;;;;;;;10.03;2.53;;;5.60;99.90;;;;;;5053172;28;20477;-67
2022/01/28 04:21:46;;;;;;;9.90;2.80;;;5.60;99.90;;;;;;5053211;28;20506;-68
2022/01/28 04:24:12;;;;;;;9.83;2.40;;;5.50;99.90;;;;;;5052915;28;20173;-67
2022/01/28 04:26:37;;;;;;;10.33;2.93;;;5.40;99.90;;;;;;5053841;28;20332;-67
2022/01/28 04:29:03;;;;;;;8.03;3.63;;;5.50;99.90;;;;;;5053132;28;20423;-68
2022/01/28 04:31:29;;;;;;;6.67;2.60;;;5.50;99.90;;;;;;5053303;28;20192;-66
2022/01/28 04:33:55;;;;;;;7.80;3.00;;;5.50;99.90;;;;;;5052103;28;20182;-68
2022/01/28 04:36:23;;;;;;;7.73;2.57;;;5.50;99.90;;;;;;5044661;28;20264;-68
2022/01/28 04:39:00;;;;;;;9.67;2.70;;;5.50;99.90;;;;;;5058413;28;20493;-67
2022/01/28 04:44:17;;;;;;;9.00;3.23;;;5.50;99.90;;;;;;5051954;28;20470;-66
2022/01/28 04:47:00;;;;;;;11.10;3.57;;;5.60;99.90;;;;;;5052954;28;20436;-68
2022/01/28 04:50:08;;;;;;;12.40;3.63;;;5.60;99.90;;;;;;5054593;28;20458;-68
2022/01/28 04:55:13;;;;;;;13.23;2.97;;;5.50;99.90;;;;;;5053068;28;20504;-68
2022/01/28 05:01:19;;;;;;;3.70;2.57;;;5.50;99.90;;;;;;5054629;28;20909;-69
2022/01/28 05:27:03;;;;;;;10.97;2.70;;;5.70;99.90;;;;;;5057977;28;20475;-67
2022/01/28 05:29:28;;;;;;;7.33;2.47;;;5.70;99.90;;;;;;5056780;28;20435;-66
2022/01/28 05:31:54;;;;;;;7.30;2.73;;;5.70;99.90;;;;;;5056631;28;20416;-67
2022/01/28 05:34:23;;;;;;;8.60;3.20;;;5.70;99.90;;;;;;5056344;28;20190;-69
2022/01/28 05:36:49;;;;;;;6.50;2.77;;;5.60;99.90;;;;;;5057196;28;20225;-69
2022/01/28 05:39:15;;;;;;;9.20;3.20;;;5.60;99.90;;;;;;5056501;28;20901;-68
2022/01/28 05:41:40;;;;;;;9.70;3.30;;;5.60;99.90;;;;;;5078018;22;20375;-69
2022/01/28 05:44:06;;;;;;;8.00;2.40;;;5.50;99.90;;;;;;5025636;28;20242;-70
2022/01/28 05:46:32;;;;;;;7.30;2.97;;;5.60;99.90;;;;;;5031938;28;20179;-71
2022/01/28 05:48:58;;;;;;;8.23;2.77;;;5.60;99.90;;;;;;5032692;28;21033;-69
2022/01/28 05:51:24;;;;;;;7.77;2.40;;;5.60;99.90;;;;;;5030460;28;20671;-70
2022/01/28 05:53:49;;;;;;;12.20;4.20;;;5.60;99.90;;;;;;5031011;28;20205;-69
2022/01/28 05:56:15;;;;;;;7.20;2.30;;;5.40;99.90;;;;;;5033730;28;20419;-69
2022/01/28 05:58:41;;;;;;;10.00;3.13;;;5.40;99.90;;;;;;5035580;28;20258;-69
2022/01/28 06:01:06;;;;;;;11.13;3.43;;;5.30;99.90;;;;;;5028847;28;20289;-70
2022/01/28 06:03:32;;;;;;;7.87;3.00;;;5.30;99.90;;;;;;5028458;28;20217;-69
2022/01/28 06:05:57;;;;;;;6.40;2.50;;;5.30;99.90;;;;;;5030390;28;20179;-70
2022/01/28 06:08:23;;;;;;;9.93;2.77;;;5.30;99.90;;;;;;5033324;28;20683;-69
2022/01/28 06:10:49;;;;;;;6.87;2.70;;;5.40;99.90;;;;;;5031953;28;20184;-69
2022/01/28 06:13:14;;;;;;;11.40;3.60;;;5.40;99.90;;;;;;5032054;28;20190;-69
2022/01/28 06:15:41;;;;;;;6.77;2.50;;;5.30;99.90;;;;;;5039586;28;20174;-69
2022/01/28 06:18:08;;;;;;;8.27;3.43;;;5.20;99.90;;;;;;5040477;28;20185;-70
2022/01/28 06:20:34;;;;;;;8.30;2.97;;;5.20;99.90;;;;;;5031723;28;20487;-68
2022/01/28 06:23:00;;;;;;;5.73;2.50;;;5.30;99.90;;;;;;5039303;28;20551;-70
2022/01/28 06:25:25;;;;;;;10.43;3.20;;;5.30;99.90;;;;;;5042178;28;20210;-70
2022/01/28 06:27:51;;;;;;;11.43;2.77;;;5.40;99.90;;;;;;5038786;28;20198;-68
2022/01/28 06:30:16;;;;;;;11.47;2.73;;;5.40;99.90;;;;;;5033722;28;20222;-69
2022/01/28 06:32:43;;;;;;;9.90;3.07;;;5.40;99.90;;;;;;5033496;28;20280;-69
2022/01/28 06:35:08;;;;;;;9.50;3.00;;;5.50;99.90;;;;;;5033087;28;20249;-71
2022/01/28 06:37:39;;;;;;;13.83;3.67;;;5.50;99.90;;;;;;5024745;28;20508;-70
2022/01/28 06:40:07;;;;;;;15.17;3.90;;;5.60;99.90;;;;;;5022068;28;20647;-70
2022/01/28 06:42:33;;;;;;;5.97;2.60;;;5.60;99.90;;;;;;5028515;28;20523;-69
2022/01/28 06:44:58;;;;;;;11.00;3.47;;;5.50;99.90;;;;;;5027949;28;20448;-69
2022/01/28 06:47:24;;;;;;;10.20;3.67;;;5.40;99.90;;;;;;5028961;28;20218;-70
2022/01/28 06:49:49;;;;;;;9.40;4.20;;;5.20;99.90;;;;;;5029178;28;20210;-70
2022/01/28 06:52:15;;;;;;;8.43;3.33;;;5.10;99.90;;;;;;5028958;28;20215;-69
2022/01/28 06:54:40;;;;;;;11.27;3.50;;;5.10;99.90;;;;;;5029829;28;20199;-69
2022/01/28 06:57:06;;;;;;;9.17;3.70;;;5.20;99.90;;;;;;5030467;28;20212;-69
2022/01/28 06:59:31;;;;;;;9.70;3.93;;;5.30;99.90;;;;;;5029023;28;20568;-70
2022/01/28 07:01:57;;;;;;;9.33;3.70;;;5.30;99.90;;;;;;5031740;28;20863;-71
2022/01/28 07:04:23;;;;;;;10.90;3.93;;;5.30;99.90;;;;;;5030551;28;20186;-71
2022/01/28 07:06:48;;;;;;;23.37;4.73;;;5.30;99.90;;;;;;5030795;28;20626;-69
2022/01/28 07:09:14;;;;;;;9.33;3.53;;;5.30;99.90;;;;;;5030515;28;20206;-70
2022/01/28 07:11:41;;;;;;;6.33;3.10;;;5.30;99.90;;;;;;5033317;28;20189;-70
2022/01/28 07:14:07;;;;;;;7.50;3.37;;;5.30;99.90;;;;;;5032473;28;20183;-70
2022/01/28 07:16:32;;;;;;;8.93;3.37;;;5.30;99.90;;;;;;5032080;28;20410;-70
2022/01/28 07:18:58;;;;;;;8.07;3.50;;;5.30;99.90;;;;;;5032701;28;20186;-70
2022/01/28 07:21:23;;;;;;;11.17;3.50;;;5.10;99.90;;;;;;5031155;28;20210;-71
2022/01/28 07:23:49;;;;;;;10.30;4.00;;;5.10;99.90;;;;;;5032433;28;20202;-71
2022/01/28 07:26:14;;;;;;;10.30;3.73;;;5.10;99.90;;;;;;5031655;28;20187;-71
2022/01/28 07:28:41;;;;;;;10.87;4.00;;;5.10;99.90;;;;;;5032231;28;20221;-70
2022/01/28 07:31:09;;;;;;;10.20;4.50;;;5.10;99.90;;;;;;5032690;28;20189;-70
2022/01/28 07:33:35;;;;;;;14.17;4.67;;;5.20;99.90;;;;;;5032945;28;20822;-70
2022/01/28 07:36:00;;;;;;;5.37;3.50;;;5.30;99.90;;;;;;5031691;28;20420;-71
2022/01/28 07:38:26;;;;;;;14.70;5.20;;;5.40;99.90;;;;;;5032250;28;20179;-70
2022/01/28 07:40:51;;;;;;;13.43;4.90;;;5.40;99.90;;;;;;5032557;28;20178;-70
2022/01/28 07:43:17;;;;;;;14.93;4.90;;;5.30;99.90;;;;;;5032972;28;20249;-70
2022/01/28 07:45:42;;;;;;;9.10;4.33;;;5.30;99.90;;;;;;5032453;28;20189;-70
2022/01/28 07:48:09;;;;;;;10.10;3.80;;;5.30;99.90;;;;;;5032581;28;20208;-71
2022/01/28 07:50:35;;;;;;;10.17;3.93;;;5.40;99.90;;;;;;5033250;28;20433;-70
2022/01/28 07:53:01;;;;;;;12.63;4.53;;;5.40;99.90;;;;;;5032544;28;20295;-71
2022/01/28 07:55:26;;;;;;;10.87;3.80;;;5.40;99.90;;;;;;5032310;28;20555;-70
2022/01/28 07:57:52;;;;;;;12.60;3.80;;;5.40;99.90;;;;;;5032388;28;20198;-70
2022/01/28 08:00:17;;;;;;;10.30;3.90;;;5.30;99.90;;;;;;5032106;28;20283;-69
2022/01/28 08:02:43;;;;;;;15.13;4.93;;;5.10;99.90;;;;;;5033115;28;20222;-70
2022/01/28 08:05:10;;;;;;;8.13;4.17;;;5.20;99.90;;;;;;5033376;28;20242;-70
2022/01/28 08:07:36;;;;;;;12.00;4.33;;;5.20;99.90;;;;;;5033641;28;20181;-71
2022/01/28 08:10:01;;;;;;;13.23;4.80;;;5.30;99.90;;;;;;5032613;28;20497;-71
2022/01/28 08:12:27;;;;;;;12.43;3.63;;;5.40;99.90;;;;;;5034722;28;20199;-70
2022/01/28 08:14:52;;;;;;;10.73;4.20;;;5.50;99.90;;;;;;5034003;28;20561;-70
2022/01/28 08:17:18;;;;;;;7.87;3.50;;;5.60;99.90;;;;;;5031390;28;20225;-71
2022/01/28 08:19:44;;;;;;;9.80;4.03;;;5.40;99.90;;;;;;5031453;28;20202;-70
2022/01/28 08:22:10;;;;;;;14.13;5.13;;;5.40;99.90;;;;;;5032351;28;20213;-70
2022/01/28 08:24:35;;;;;;;9.63;3.77;;;5.40;99.90;;;;;;5031169;28;20435;-70
2022/01/28 08:27:01;;;;;;;8.63;3.60;;;5.40;99.90;;;;;;5042395;28;20671;-70
2022/01/28 08:29:26;;;;;;;9.63;3.47;;;5.30;99.90;;;;;;5031504;28;20683;-69
2022/01/28 08:31:52;;;;;;;7.90;3.33;;;5.20;99.90;;;;;;5030644;28;20260;-71
2022/01/28 08:34:17;;;;;;;11.37;5.53;;;5.20;99.90;;;;;;5032286;28;20205;-70
2022/01/28 08:36:43;;;;;;;8.00;3.13;;;5.10;99.90;;;;;;5030845;28;20596;-70
2022/01/28 08:39:10;;;;;;;10.47;4.47;;;5.20;99.90;;;;;;5031882;28;20190;-70
2022/01/28 08:41:38;;;;;;;11.83;4.10;;;5.30;99.90;;;;;;5031142;28;20214;-71
2022/01/28 08:44:05;;;;;;;9.67;3.80;;;5.40;99.90;;;;;;5030122;28;20487;-70
2022/01/28 08:46:30;;;;;;;14.50;4.37;;;5.30;99.90;;;;;;5030882;28;20448;-70
2022/01/28 08:48:56;;;;;;;6.07;3.63;;;5.30;99.90;;;;;;5032167;28;20460;-70
2022/01/28 08:51:21;;;;;;;10.47;4.10;;;5.40;99.90;;;;;;5030902;28;20186;-71
2022/01/28 08:53:47;;;;;;;20.93;4.30;;;5.50;99.90;;;;;;5030837;28;20766;-70
2022/01/28 08:56:13;;;;;;;11.50;3.67;;;5.50;99.90;;;;;;5030652;28;20269;-70
2022/01/28 08:58:38;;;;;;;7.90;3.50;;;5.60;99.90;;;;;;5030972;28;20207;-71
2022/01/28 09:01:04;;;;;;;11.73;3.23;;;5.50;99.90;;;;;;5032166;28;20183;-70
2022/01/28 09:03:29;;;;;;;9.00;4.13;;;5.50;99.90;;;;;;5030933;28;20209;-71
2022/01/28 09:05:55;;;;;;;10.90;4.30;;;5.50;99.90;;;;;;5029039;28;20220;-71
2022/01/28 09:08:20;;;;;;;12.97;4.20;;;5.40;99.90;;;;;;5030751;28;20175;-71
2022/01/28 09:10:56;;;;;;;10.50;4.03;;;5.50;99.90;;;;;;5031881;28;20185;-71
2022/01/28 09:13:25;;;;;;;12.30;4.30;;;5.60;99.90;;;;;;5029393;28;20202;-70
2022/01/28 09:15:54;;;;;;;7.70;3.27;;;5.60;99.90;;;;;;5030660;28;20831;-70
2022/01/28 09:18:20;;;;;;;11.53;4.30;;;5.60;99.90;;;;;;5030790;28;20428;-70
2022/01/28 09:20:47;;;;;;;12.93;4.10;;;5.60;99.90;;;;;;5032079;28;20510;-69
2022/01/28 09:23:13;;;;;;;8.50;3.27;;;5.50;99.90;;;;;;5030929;28;20475;-70
2022/01/28 09:25:38;;;;;;;12.17;4.23;;;5.60;99.90;;;;;;5030435;28;20815;-70
2022/01/28 09:28:04;;;;;;;11.67;3.10;;;5.70;99.90;;;;;;5030486;28;20501;-69
2022/01/28 09:30:31;;;;;;;10.40;3.43;;;5.80;99.90;;;;;;5014496;28;20179;-69
2022/01/28 09:32:57;;;;;;;14.03;3.90;;;5.80;99.90;;;;;;5032223;28;20449;-70
2022/01/28 09:35:23;;;;;;;9.27;3.10;;;5.80;99.90;;;;;;5030814;28;20755;-70
2022/01/28 09:37:50;;;;;;;11.70;3.83;;;5.80;99.90;;;;;;5030506;28;20508;-71
2022/01/28 09:40:15;;;;;;;15.40;4.03;;;5.70;99.90;;;;;;5031103;28;20441;-71
2022/01/28 09:42:43;;;;;;;7.33;3.20;;;5.70;99.90;;;;;;5031830;28;20527;-71
2022/01/28 09:45:10;;;;;;;10.90;3.97;;;5.80;99.90;;;;;;5030906;28;20246;-72
2022/01/28 09:47:38;;;;;;;10.10;3.20;;;5.80;99.90;;;;;;5030690;28;20972;-72
2022/01/28 09:50:05;;;;;;;16.67;3.90;;;5.80;99.90;;;;;;5030621;28;20405;-70
2022/01/28 09:52:32;;;;;;;10.30;3.10;;;5.80;99.90;;;;;;5015634;28;20465;-70
2022/01/28 09:54:58;;;;;;;14.23;3.87;;;5.90;99.90;;;;;;5031524;28;20926;-71
2022/01/28 09:57:24;;;;;;;13.50;4.03;;;5.90;99.90;;;;;;5034736;28;20433;-71
2022/01/28 09:59:49;;;;;;;11.60;4.10;;;5.90;99.90;;;;;;5033528;28;20183;-71
2022/01/28 10:02:15;;;;;;;8.10;3.13;;;5.90;99.90;;;;;;5036153;28;20703;-70
2022/01/28 10:04:41;;;;;;;8.60;3.43;;;5.90;99.90;;;;;;5049140;28;20301;-71
2022/01/28 10:07:11;;;;;;;8.03;3.27;;;5.90;99.90;;;;;;5033825;28;20421;-71
2022/01/28 10:09:56;;;;;;;11.97;4.63;;;5.90;99.90;;;;;;5034443;28;20680;-71
2022/01/28 10:12:32;;;;;;;10.50;3.43;;;5.90;99.90;;;;;;5035030;28;20445;-71
2022/01/28 10:15:07;;;;;;;8.10;3.83;;;5.90;99.90;;;;;;5034314;28;20417;-70
2022/01/28 10:17:52;;;;;;;8.53;3.40;;;6.00;99.90;;;;;;5033788;28;20421;-71
2022/01/28 10:20:17;;;;;;;9.63;3.43;;;6.10;99.90;;;;;;5033846;28;20417;-72
2022/01/28 10:22:58;;;;;;;7.10;4.03;;;6.10;99.90;;;;;;5035839;28;21016;-71
2022/01/28 10:25:37;;;;;;;7.57;2.90;;;6.10;99.90;;;;;;5042546;28;20425;-71
2022/01/28 10:28:06;;;;;;;12.73;3.30;;;6.10;99.90;;;;;;5033773;28;20409;-71
2022/01/28 10:30:50;;;;;;;12.67;3.37;;;6.10;99.90;;;;;;5017828;28;20499;-72
2022/01/28 10:33:22;;;;;;;13.33;3.57;;;6.10;99.90;;;;;;5034751;28;20445;-71
2022/01/28 10:35:54;;;;;;;10.80;3.33;;;6.10;99.90;;;;;;5033510;28;20492;-71
2022/01/28 10:38:36;;;;;;;10.43;3.73;;;6.10;99.90;;;;;;5035362;28;20417;-71
2022/01/28 10:41:14;;;;;;;14.60;4.03;;;6.20;99.90;;;;;;5044140;28;20571;-71
2022/01/28 10:43:44;;;;;;;12.67;4.60;;;6.20;99.90;;;;;;5033098;28;20519;-70
2022/01/28 10:46:10;;;;;;;9.60;4.17;;;6.30;99.90;;;;;;5031660;28;20426;-71
2022/01/28 10:48:50;;;;;;;11.00;4.07;;;6.30;99.90;;;;;;5034414;28;20410;-71
2022/01/28 10:51:18;;;;;;;15.07;5.60;;;6.40;99.90;;;;;;5023540;28;20206;-71
2022/01/28 10:54:05;;;;;;;9.93;4.77;;;6.50;99.90;;;;;;5033145;28;20570;-71
2022/01/28 10:56:48;;;;;;;14.83;4.97;;;6.60;99.90;;;;;;5033200;28;20784;-71
2022/01/28 10:59:16;;;;;;;8.60;3.80;;;6.60;99.90;;;;;;5034048;28;20410;-71
2022/01/28 11:01:44;;;;;;;13.83;4.50;;;6.70;99.90;;;;;;5033238;28;20552;-72
2022/01/28 11:04:16;;;;;;;11.20;5.63;;;6.80;99.90;;;;;;5033145;28;20429;-71
2022/01/28 11:06:43;;;;;;;16.83;4.93;;;6.80;99.90;;;;;;5030541;28;20421;-71
2022/01/28 11:09:11;;;;;;;16.03;4.53;;;6.80;99.90;;;;;;5032557;28;20775;-71
2022/01/28 11:11:37;;;;;;;15.00;4.10;;;6.70;99.90;;;;;;5034001;28;20433;-71
2022/01/28 11:14:04;;;;;;;12.37;5.33;;;6.70;99.90;;;;;;5031413;28;20421;-71
2022/01/28 11:16:29;;;;;;;11.27;4.70;;;6.70;99.90;;;;;;5032372;28;20421;-71
2022/01/28 11:18:57;;;;;;;13.37;5.43;;;6.70;99.90;;;;;;5031621;28;20796;-71
2022/01/28 11:22:04;;;;;;;11.40;5.03;;;6.70;99.90;;;;;;5033603;28;20627;-71
2022/01/28 11:24:39;;;;;;;11.90;5.27;;;6.70;99.90;;;;;;5046506;28;20414;-71
2022/01/28 11:27:12;;;;;;;19.70;6.13;;;6.70;99.90;;;;;;5032778;28;20409;-71
2022/01/28 11:29:38;;;;;;;6.23;4.47;;;6.70;99.90;;;;;;5032245;28;20413;-71
2022/01/28 11:32:18;;;;;;;18.20;4.67;;;6.70;99.90;;;;;;5033420;28;20445;-71
2022/01/28 11:35:06;;;;;;;12.90;4.43;;;6.60;99.90;;;;;;5018059;28;20410;-71
2022/01/28 11:37:34;;;;;;;11.00;3.77;;;6.50;99.90;;;;;;5032429;28;20423;-71
2022/01/28 11:40:11;;;;;;;17.53;3.90;;;6.50;99.90;;;;;;5032755;28;20786;-71
2022/01/28 11:42:37;;;;;;;8.10;4.07;;;6.60;99.90;;;;;;5033623;28;20468;-72
2022/01/28 11:45:09;;;;;;;12.23;3.80;;;6.60;99.90;;;;;;5032422;28;20763;-69
2022/01/28 11:47:40;;;;;;;14.77;3.60;;;6.60;99.90;;;;;;5024459;28;20248;-70
2022/01/28 11:50:19;;;;;;;12.63;3.50;;;6.50;99.90;;;;;;5032267;28;20402;-70
2022/01/28 11:52:49;;;;;;;15.27;4.20;;;6.50;99.90;;;;;;5033076;28;20501;-70
2022/01/28 11:55:14;;;;;;;9.60;3.17;;;6.50;99.90;;;;;;5031939;28;20414;-70
2022/01/28 11:57:58;;;;;;;9.80;4.10;;;6.40;99.90;;;;;;5033173;28;20416;-70
2022/01/28 12:00:39;;;;;;;16.23;4.33;;;6.30;99.90;;;;;;5031762;28;21745;-70
2022/01/28 12:03:19;;;;;;;13.20;3.80;;;6.30;99.90;;;;;;5032464;28;20469;-70
2022/01/28 12:05:47;;;;;;;7.77;4.47;;;6.30;99.90;;;;;;5026601;28;20412;-72
2022/01/28 12:08:15;;;;;;;9.97;4.20;;;6.40;99.90;;;;;;5031815;28;20433;-71
2022/01/28 12:10:46;;;;;;;13.23;4.53;;;6.40;99.90;;;;;;5030345;28;20452;-71
2022/01/28 12:13:14;;;;;;;11.83;4.90;;;6.50;99.90;;;;;;5032072;28;20437;-71
2022/01/28 12:16:03;;;;;;;15.93;5.53;;;6.50;99.90;;;;;;5032818;28;20706;-71
2022/01/28 12:18:48;;;;;;;9.47;4.00;;;6.50;99.90;;;;;;5031309;28;20500;-71
2022/01/28 12:21:23;;;;;;;9.20;4.90;;;6.60;99.90;;;;;;5031383;28;20536;-71
2022/01/28 12:23:51;;;;;;;12.20;5.37;;;6.70;99.90;;;;;;5031721;28;20433;-71
2022/01/28 12:26:19;;;;;;;16.30;6.30;;;6.70;99.90;;;;;;5031620;28;20463;-71
2022/01/28 12:28:54;;;;;;;15.30;5.93;;;6.70;99.90;;;;;;5031490;28;20405;-71
2022/01/28 12:31:26;;;;;;;13.00;5.63;;;6.80;99.90;;;;;;5031553;28;20436;-71
2022/01/28 12:33:55;;;;;;;12.23;5.73;;;6.80;99.90;;;;;;5031522;28;20549;-70
2022/01/28 12:36:33;;;;;;;11.87;5.70;;;6.80;99.90;;;;;;5032117;28;20433;-71
2022/01/28 12:39:11;;;;;;;15.80;5.33;;;6.80;99.90;;;;;;5031567;28;20837;-71
2022/01/28 12:41:50;;;;;;;15.10;5.80;;;6.80;99.90;;;;;;5031391;28;20487;-71
2022/01/28 12:44:17;;;;;;;10.17;5.60;;;6.90;99.90;;;;;;5034041;28;20425;-71
2022/01/28 12:46:49;;;;;;;12.13;6.17;;;7.10;99.90;;;;;;5031183;28;20971;-71
2022/01/28 12:49:16;;;;;;;9.07;5.03;;;7.20;99.90;;;;;;5029137;28;20425;-71
2022/01/28 12:51:42;;;;;;;9.70;6.53;;;7.30;99.90;;;;;;5031212;28;20483;-71
2022/01/28 12:54:08;;;;;;;7.57;5.60;;;7.30;99.90;;;;;;5045458;28;20425;-71
2022/01/28 12:56:35;;;;;;;9.27;5.77;;;7.30;99.90;;;;;;5030899;28;20419;-71
2022/01/28 12:59:02;;;;;;;9.53;5.10;;;7.30;99.90;;;;;;5031345;28;20186;-71
2022/01/28 13:01:29;;;;;;;15.17;4.77;;;7.30;99.90;;;;;;5032195;28;20500;-71
2022/01/28 13:04:13;;;;;;;16.33;4.97;;;7.40;99.90;;;;;;5031438;28;20464;-71
2022/01/28 13:09:19;;;;;;;7.60;3.67;;;7.80;99.90;;;;;;5031567;28;20440;-71
2022/01/28 13:12:00;;;;;;;8.90;3.70;;;8.00;99.90;;;;;;5031172;28;20409;-71
2022/01/28 13:14:34;;;;;;;6.47;3.30;;;8.10;99.90;;;;;;5031131;28;20414;-71
2022/01/28 13:17:01;;;;;;;10.67;4.77;;;8.20;99.90;;;;;;5030939;28;20992;-70
2022/01/28 13:19:27;;;;;;;10.60;4.17;;;8.20;99.90;;;;;;5031436;28;20417;-72
2022/01/28 13:21:54;;;;;;;8.30;5.53;;;8.00;99.90;;;;;;5031174;28;20468;-71
2022/01/28 13:24:22;;;;;;;11.77;4.60;;;7.90;99.90;;;;;;5030917;28;20421;-70
2022/01/28 13:27:04;;;;;;;12.27;5.60;;;7.90;99.90;;;;;;5032322;28;20556;-71
2022/01/28 13:29:39;;;;;;;11.17;6.40;;;7.80;99.90;;;;;;5032965;28;20529;-71
2022/01/28 13:32:08;;;;;;;8.93;5.57;;;7.80;99.90;;;;;;5034681;28;20438;-71
2022/01/28 13:34:53;;;;;;;14.33;6.47;;;7.70;99.90;;;;;;5035331;28;20426;-71
2022/01/28 13:37:51;;;;;;;18.03;7.03;;;7.60;99.90;;;;;;5034387;28;20478;-71
2022/01/28 13:40:32;;;;;;;18.63;6.27;;;7.60;99.90;;;;;;5034397;28;20453;-71
2022/01/28 13:43:09;;;;;;;13.97;6.27;;;7.70;99.90;;;;;;5034520;28;20505;-71
2022/01/28 13:45:40;;;;;;;9.73;5.90;;;7.80;99.90;;;;;;5034204;28;20445;-71
2022/01/28 13:48:20;;;;;;;11.00;4.90;;;7.80;99.90;;;;;;5035071;28;20414;-72
2022/01/28 13:50:53;;;;;;;5.83;4.10;;;8.00;99.90;;;;;;5035393;28;20449;-71
2022/01/28 13:56:02;;;;;;;6.63;2.80;;;8.20;99.90;;;;;;5033993;28;20418;-72
2022/01/28 13:58:29;;;;;;;6.40;3.27;;;8.10;99.90;;;;;;5033204;28;20427;-71
2022/01/28 14:00:55;;;;;;;13.17;3.30;;;8.10;99.90;;;;;;5037972;28;20519;-71
2022/01/28 14:03:26;;;;;;;6.50;2.67;;;8.30;99.90;;;;;;5035760;28;20477;-71
2022/01/28 14:05:58;;;;;;;5.20;2.40;;;8.40;99.90;;;;;;5035462;28;20488;-72
2022/01/28 14:09:10;;;;;;;7.50;2.57;;;8.60;99.90;;;;;;5035415;28;20425;-72
2022/01/28 14:11:46;;;;;;;11.77;4.30;;;8.80;99.90;;;;;;4973577;28;21027;-72
2022/01/28 14:14:19;;;;;;;11.50;3.20;;;8.80;99.90;;;;;;4992970;28;20960;-72
2022/01/28 14:16:51;;;;;;;8.83;3.53;;;8.90;99.90;;;;;;4991934;28;20506;-72
2022/01/28 14:19:17;;;;;;;7.50;2.97;;;8.90;99.90;;;;;;4992073;28;20457;-74
2022/01/28 14:21:44;;;;;;;4.83;2.50;;;9.00;99.90;;;;;;4980945;28;20558;-71
2022/01/28 14:24:14;;;;;;;8.50;3.27;;;9.10;99.90;;;;;;4965138;28;20478;-70
2022/01/28 14:26:42;;;;;;;6.80;2.77;;;9.20;99.90;;;;;;4964529;28;20446;-70
2022/01/28 14:31:54;;;;;;;10.30;3.30;;;9.20;99.90;;;;;;4979953;28;20518;-70
2022/01/28 14:34:20;;;;;;;8.97;3.30;;;9.10;99.90;;;;;;4973407;28;20462;-71